Strona główna
METAR-TAF:

METAR-TAF

Lotnisko :

Presidente Prudente, São Paulo, Brazylia

Szerokość geograficzna: 22-07S, Długość geograficzna: 051-23W, wysokość: 436 m

Aktualna obserwacja pogody

Raport powstał 1 godzina i 15 minut temu, godzina 21:00 UTC
Wiatr 9 kt od wschodnio-południowy wschód
Temperatura 18°C
Wilgotność 100%
Ciśnienie 1019 hPa
Widzialność 10 km lub więcej
Mało chmury na wysokości 4000 ft
Przerywane chmury na wysokości 10000 ft

METAR: SBDN 042100Z 11009KT 9999 FEW040 BKN100 18/18 Q1019

czas: 19:15 (22:15 UTC)

Prognoza

Raport powstał 7 godziny i 15 minut temu, godzina 15:00 UTC
Prognoza ważna od 04 godzina 18 UTC do 05 godzina 06 UTC
Wiatr 5 kt od wschód
Widzialność 10 km lub więcej
Rozproszone chmury na wysokości 1500 ft
Stopniowe zmiany
od 04 godzina 21 UTC do 04 godzina 23 UTC
Wiatr 3 kt od wschodnio-południowy wschód
Rozproszone chmury na wysokości 4000 ft

TAF: SBDN 041500Z 0418/0506 09005KT 9999 SCT015 TX21/0418Z TN17/0506Z BECMG 0421/0423 12003KT SCT040 RMK PEO

Obserwacja i prognoza pogody dla ponad 4000 lotnisk (raport METAR i TAF).

Dostępne stacje oznaczono żółtymi i czerwonymi punktami na mapie.

Najedź kursorem aby zobaczyć nazwę stacji.

Kliknij aby zobaczyć obserwacje i prognozy pogody.

Aby zmienić mapę: kliknij na zielony przycisk z czarnym krzyżykiem, aby powiększyć; na zielony przycisk z myślnikiem, aby pomniejszyć; na zielone strzałki, aby przejść do map sąsiednich.


METAR-TAF: